Terminal Aerodrome Forecast
Issued by NWS Twin Cities, MN

Home | Current Version | Previous Version | Graphics & Text | Print | Product List | Glossary On
Versions: 1 2 3 4 5 6 7 8 9 10 11 12 13 14 15
646
FTUS43 KMPX 220531 CCA
TAFSTC
TAF COR
KSTC 220531Z 2206/2306 26004KT P6SM VCSH BKN050
     FM221000 33006KT P6SM -SHRA BKN035 OVC060
     FM221700 14006KT P6SM BKN050 OVC100
     FM222200 26008KT P6SM BKN150=

USA.gov is the U.S. government's official web portal to all federal, state and local government web resources and services.